createdAt,value
2024-02-05T00:00:29.047Z,56.18
2024-02-05T00:02:57.269Z,55.57
2024-02-05T00:05:24.611Z,55.87
2024-02-05T00:07:54.588Z,56.67
2024-02-05T00:10:24.485Z,56.14
2024-02-05T00:12:51.897Z,55.58
2024-02-05T00:15:19.345Z,55.52
2024-02-05T00:17:46.982Z,56.35
2024-02-05T00:20:14.530Z,56.68
2024-02-05T00:22:43.459Z,56.90
2024-02-05T00:25:11.700Z,56.74
2024-02-05T00:27:39.429Z,56.35
2024-02-05T00:30:07.498Z,56.39
2024-02-05T00:32:35.617Z,57.04
2024-02-05T00:35:03.737Z,57.89
2024-02-05T00:37:31.694Z,57.30
2024-02-05T00:39:59.416Z,57.95
2024-02-05T00:42:26.778Z,58.23
2024-02-05T00:44:54.109Z,57.98
2024-02-05T00:47:21.722Z,59.46
2024-02-05T00:49:49.299Z,59.62
2024-02-05T00:52:16.870Z,60.70
2024-02-05T00:54:44.627Z,61.00
2024-02-05T00:57:12.169Z,60.30
2024-02-05T00:59:39.582Z,60.42
2024-02-05T01:02:07.867Z,61.13
2024-02-05T01:04:35.646Z,60.52
2024-02-05T01:07:03.413Z,60.65
2024-02-05T01:09:31.093Z,61.10
2024-02-05T01:11:58.433Z,61.50
2024-02-05T01:14:25.817Z,61.34
2024-02-05T01:16:53.465Z,61.77
2024-02-05T01:19:21.105Z,62.62
2024-02-05T01:21:48.453Z,61.82
2024-02-05T01:24:16.114Z,61.85
2024-02-05T01:26:43.482Z,62.08
2024-02-05T01:29:11.233Z,62.24
2024-02-05T01:31:43.037Z,62.27
2024-02-05T01:34:10.735Z,62.61
2024-02-05T01:36:38.426Z,61.53
2024-02-05T01:39:06.285Z,61.93
2024-02-05T01:41:34.090Z,61.70
2024-02-05T01:44:01.504Z,61.89
2024-02-05T01:46:31.036Z,61.37
2024-02-05T01:49:01.397Z,62.45
2024-02-05T01:51:33.066Z,62.67
2024-02-05T01:54:00.583Z,62.68
2024-02-05T01:56:33.756Z,61.83
2024-02-05T01:59:01.470Z,63.27
2024-02-05T02:01:29.998Z,62.92
2024-02-05T02:03:58.532Z,62.97
2024-02-05T02:06:26.487Z,62.71
2024-02-05T02:08:53.902Z,63.25
2024-02-05T02:11:21.925Z,63.05
2024-02-05T02:13:49.338Z,62.24
2024-02-05T02:16:22.393Z,61.61
2024-02-05T02:18:50.912Z,61.26
2024-02-05T02:21:21.452Z,60.96
2024-02-05T02:23:49.245Z,61.85
2024-02-05T02:26:17.226Z,61.81
2024-02-05T02:28:44.716Z,61.47
2024-02-05T02:31:12.312Z,61.71
2024-02-05T02:34:03.481Z,61.45
2024-02-05T02:36:41.906Z,61.21
2024-02-05T02:39:16.923Z,61.00
2024-02-05T02:41:44.698Z,60.78
2024-02-05T02:44:12.799Z,61.36
2024-02-05T02:46:41.626Z,61.03
2024-02-05T02:49:09.058Z,60.79
2024-02-05T02:51:37.028Z,59.91
2024-02-05T02:54:04.724Z,59.67
2024-02-05T02:56:32.419Z,58.86
2024-02-05T02:59:00.007Z,58.27
2024-02-05T03:01:27.445Z,57.82
2024-02-05T03:03:55.498Z,58.00
2024-02-05T03:06:23.588Z,58.03
2024-02-05T03:08:50.921Z,58.11
2024-02-05T03:11:18.260Z,58.06
2024-02-05T03:13:45.926Z,57.98
2024-02-05T03:16:13.326Z,57.69
2024-02-05T03:18:40.762Z,57.82
2024-02-05T03:21:08.499Z,57.86
2024-02-05T03:23:35.940Z,57.81
2024-02-05T03:26:03.518Z,57.63
2024-02-05T03:28:31.293Z,57.76
2024-02-05T03:30:58.930Z,57.45
2024-02-05T03:33:26.265Z,57.44
2024-02-05T03:35:54.199Z,57.33
2024-02-05T03:38:21.568Z,57.24
2024-02-05T03:40:48.922Z,57.15
2024-02-05T03:43:17.066Z,57.20
2024-02-05T03:45:44.506Z,57.16
2024-02-05T03:48:11.947Z,57.15
2024-02-05T03:50:39.634Z,56.89
2024-02-05T03:53:07.147Z,57.09
2024-02-05T03:55:34.504Z,56.97
2024-02-05T03:58:07.283Z,57.09
2024-02-05T04:00:34.799Z,57.59
2024-02-05T04:03:02.567Z,57.56
2024-02-05T04:05:32.472Z,58.12
2024-02-05T04:08:00.129Z,58.10
2024-02-05T04:10:30.799Z,58.62
2024-02-05T04:12:58.312Z,58.55
2024-02-05T04:15:25.684Z,58.09
2024-02-05T04:17:53.614Z,58.47
2024-02-05T04:20:21.068Z,58.26
2024-02-05T04:22:50.281Z,58.40
2024-02-05T04:25:18.404Z,58.32
2024-02-05T04:27:45.951Z,58.47
2024-02-05T04:30:13.598Z,58.46
2024-02-05T04:32:41.303Z,58.30
2024-02-05T04:35:09.334Z,58.00
2024-02-05T04:37:37.027Z,58.22
2024-02-05T04:40:05.290Z,58.31
2024-02-05T04:42:32.668Z,57.98
2024-02-05T04:44:59.992Z,57.91
2024-02-05T04:47:27.721Z,58.26
2024-02-05T04:49:55.154Z,57.82
2024-02-05T04:52:22.791Z,58.21
2024-02-05T04:54:50.534Z,57.74
2024-02-05T04:57:17.914Z,58.23
2024-02-05T04:59:45.259Z,58.71
2024-02-05T05:02:13.099Z,58.47
2024-02-05T05:04:43.388Z,58.08
2024-02-05T05:07:10.931Z,58.22
2024-02-05T05:09:40.841Z,59.10
2024-02-05T05:12:08.504Z,58.74
2024-02-05T05:14:38.266Z,59.66
2024-02-05T05:17:05.868Z,58.83
2024-02-05T05:19:33.330Z,59.11
2024-02-05T05:22:00.796Z,58.86
2024-02-05T05:24:28.498Z,59.14
2024-02-05T05:26:55.886Z,59.03
2024-02-05T05:29:23.523Z,58.44
2024-02-05T05:31:51.149Z,58.56
2024-02-05T05:34:20.621Z,58.95
2024-02-05T05:36:48.157Z,59.08
2024-02-05T05:39:15.805Z,58.25
2024-02-05T05:41:43.113Z,58.03
2024-02-05T05:44:10.504Z,58.35
2024-02-05T05:46:39.209Z,58.10
2024-02-05T05:49:06.921Z,58.57
2024-02-05T05:51:34.360Z,58.95
2024-02-05T05:54:02.041Z,58.59
2024-02-05T05:56:29.815Z,58.47
2024-02-05T05:58:57.937Z,57.75
2024-02-05T06:01:25.739Z,58.12
2024-02-05T06:03:53.396Z,58.22
2024-02-05T06:06:20.789Z,58.28
2024-02-05T06:08:48.129Z,57.76
2024-02-05T06:11:15.769Z,57.51
2024-02-05T06:13:43.357Z,57.23
2024-02-05T06:16:10.959Z,57.19
2024-02-05T06:18:38.814Z,57.22
2024-02-05T06:21:07.867Z,57.41
2024-02-05T06:23:35.303Z,58.03
2024-02-05T06:26:03.471Z,57.08
2024-02-05T06:28:30.938Z,56.71
2024-02-05T06:30:58.396Z,56.42
2024-02-05T06:33:26.327Z,56.31
2024-02-05T06:35:53.782Z,55.95
2024-02-05T06:38:21.142Z,55.75
2024-02-05T06:40:48.824Z,55.29
2024-02-05T06:43:17.273Z,55.21
2024-02-05T06:45:44.765Z,54.91
2024-02-05T06:48:13.089Z,55.21
2024-02-05T06:50:40.481Z,56.42
2024-02-05T06:53:07.975Z,55.58
2024-02-05T06:55:35.713Z,55.26
2024-02-05T06:58:03.198Z,55.29
2024-02-05T07:00:30.580Z,54.43
2024-02-05T07:02:58.310Z,54.48
2024-02-05T07:05:25.733Z,55.03
2024-02-05T07:07:53.234Z,55.39
2024-02-05T07:10:20.935Z,59.19
2024-02-05T07:12:48.412Z,56.97
2024-02-05T07:15:15.848Z,53.59
2024-02-05T07:17:46.155Z,53.93
2024-02-05T07:20:13.971Z,53.50
2024-02-05T07:22:41.840Z,54.15
2024-02-05T07:25:09.768Z,54.16
2024-02-05T07:27:38.855Z,53.64
2024-02-05T07:30:07.211Z,53.39
2024-02-05T07:32:34.901Z,53.64
2024-02-05T07:35:02.952Z,53.10
2024-02-05T07:37:30.813Z,53.78
2024-02-05T07:39:58.534Z,54.14
2024-02-05T07:42:25.903Z,54.49
2024-02-05T07:44:53.250Z,54.15
2024-02-05T07:47:20.843Z,53.63
2024-02-05T07:49:48.227Z,53.72
2024-02-05T07:52:16.062Z,52.88
2024-02-05T07:54:44.157Z,53.50
2024-02-05T07:57:11.566Z,53.40
2024-02-05T07:59:39.010Z,52.68
2024-02-05T08:02:07.421Z,52.52
2024-02-05T08:04:35.197Z,52.48
2024-02-05T08:07:05.539Z,51.39
2024-02-05T08:09:35.877Z,51.15
2024-02-05T08:12:04.171Z,51.43
2024-02-05T08:14:31.525Z,51.33
2024-02-05T08:16:59.125Z,51.02
2024-02-05T08:19:26.996Z,51.29
2024-02-05T08:21:54.530Z,50.93
2024-02-05T08:24:21.946Z,50.69
2024-02-05T08:26:49.596Z,50.21
2024-02-05T08:29:20.059Z,49.49
2024-02-05T08:31:47.414Z,50.69
2024-02-05T08:34:15.313Z,50.34
2024-02-05T08:36:42.801Z,50.77
2024-02-05T08:39:12.079Z,50.19
2024-02-05T08:41:39.758Z,50.70
2024-02-05T08:44:08.225Z,50.96
2024-02-05T08:46:35.758Z,50.49
2024-02-05T08:49:03.472Z,50.51
2024-02-05T08:51:32.262Z,51.21
2024-02-05T08:53:59.688Z,50.64
2024-02-05T08:56:27.275Z,50.24
2024-02-05T08:58:54.615Z,50.72
2024-02-05T09:01:22.160Z,50.16
2024-02-05T09:03:49.977Z,49.88
2024-02-05T09:06:17.555Z,49.97
2024-02-05T09:08:44.939Z,49.77
2024-02-05T09:11:15.201Z,49.90
2024-02-05T09:13:42.987Z,49.42
2024-02-05T09:16:10.705Z,49.83
2024-02-05T09:18:38.865Z,50.08
2024-02-05T09:21:06.611Z,49.55
2024-02-05T09:23:35.690Z,49.25
2024-02-05T09:26:03.381Z,49.58
2024-02-05T09:28:31.672Z,49.25
2024-02-05T09:31:06.424Z,48.95
2024-02-05T09:33:39.959Z,48.72
2024-02-05T09:36:07.768Z,48.06
2024-02-05T09:38:35.103Z,47.83
2024-02-05T09:41:06.941Z,47.09
2024-02-05T09:43:34.696Z,46.29
2024-02-05T09:46:06.354Z,47.01
2024-02-05T09:48:40.828Z,46.02
2024-02-05T09:51:11.519Z,45.54
2024-02-05T09:53:40.762Z,44.88
2024-02-05T09:56:08.896Z,44.83
2024-02-05T09:58:36.328Z,45.48
2024-02-05T10:01:04.515Z,44.92
2024-02-05T10:03:32.608Z,45.10
2024-02-05T10:06:05.063Z,44.75
2024-02-05T10:08:35.814Z,44.92
2024-02-05T10:11:03.828Z,44.42
2024-02-05T10:13:31.664Z,43.83
2024-02-05T10:15:59.326Z,43.85
2024-02-05T10:18:27.021Z,44.19
2024-02-05T10:20:54.436Z,44.08
2024-02-05T10:23:24.718Z,44.68
2024-02-05T10:25:57.472Z,44.24
2024-02-05T10:28:25.281Z,44.25
2024-02-05T10:30:52.996Z,43.87
2024-02-05T10:33:20.539Z,44.76
2024-02-05T10:35:54.796Z,44.80
2024-02-05T10:38:24.234Z,45.02
2024-02-05T10:40:53.024Z,44.61
2024-02-05T10:43:20.422Z,45.07
2024-02-05T10:45:47.807Z,44.88
2024-02-05T10:48:15.528Z,44.55
2024-02-05T10:50:43.886Z,44.53
2024-02-05T10:53:11.614Z,44.71
2024-02-05T10:55:40.731Z,44.96
2024-02-05T10:58:09.014Z,44.14
2024-02-05T11:00:36.510Z,44.47
2024-02-05T11:03:12.616Z,44.67
2024-02-05T11:05:52.400Z,44.26
2024-02-05T11:08:27.773Z,44.01
2024-02-05T11:10:56.789Z,43.22
2024-02-05T11:13:29.883Z,43.51
2024-02-05T11:16:02.702Z,42.80
2024-02-05T11:18:34.980Z,42.82
2024-02-05T11:21:04.405Z,43.07
2024-02-05T11:23:33.644Z,42.92
2024-02-05T11:26:01.270Z,42.84
2024-02-05T11:28:29.153Z,42.98
2024-02-05T11:31:08.830Z,42.47
2024-02-05T11:33:39.688Z,41.97
2024-02-05T11:36:14.263Z,42.03
2024-02-05T11:38:42.865Z,42.26
2024-02-05T11:41:11.021Z,42.75
2024-02-05T11:43:38.568Z,42.50
2024-02-05T11:46:07.194Z,42.47
2024-02-05T11:48:37.638Z,42.02
2024-02-05T11:51:05.493Z,41.83
2024-02-05T11:53:33.099Z,42.76
2024-02-05T11:56:00.895Z,42.17
2024-02-05T11:58:29.207Z,42.46
2024-02-05T12:00:56.802Z,43.05
2024-02-05T12:03:24.656Z,43.09
2024-02-05T12:05:52.316Z,42.36
2024-02-05T12:08:19.858Z,42.96
2024-02-05T12:10:48.615Z,42.47
2024-02-05T12:13:19.273Z,42.39
2024-02-05T12:15:46.849Z,42.94
2024-02-05T12:18:14.872Z,43.38
2024-02-05T12:20:42.408Z,42.93
2024-02-05T12:23:10.120Z,42.94
2024-02-05T12:25:42.338Z,43.27
2024-02-05T12:28:14.587Z,43.50
2024-02-05T12:30:42.296Z,43.80
2024-02-05T12:33:14.850Z,43.66
2024-02-05T12:35:42.532Z,43.51
2024-02-05T12:38:11.008Z,43.36
2024-02-05T12:40:38.949Z,43.78
2024-02-05T12:43:07.006Z,44.19
2024-02-05T12:45:34.684Z,43.68
2024-02-05T12:48:02.685Z,43.72
2024-02-05T12:50:33.553Z,43.48
2024-02-05T12:53:01.541Z,42.83
2024-02-05T12:55:29.436Z,42.90
2024-02-05T12:57:57.228Z,42.68
2024-02-05T13:00:24.952Z,43.22
2024-02-05T13:03:02.306Z,42.58
2024-02-05T13:05:31.493Z,43.02
2024-02-05T13:07:59.902Z,42.69
2024-02-05T13:10:28.756Z,42.55
2024-02-05T13:12:56.936Z,43.37
2024-02-05T13:15:26.585Z,43.20
2024-02-05T13:17:54.063Z,42.97
2024-02-05T13:20:21.733Z,42.33
2024-02-05T13:22:49.279Z,42.60
2024-02-05T13:25:20.460Z,42.38
2024-02-05T13:27:49.611Z,42.19
2024-02-05T13:30:17.113Z,42.76
2024-02-05T13:32:44.817Z,42.69
2024-02-05T13:35:12.548Z,42.71
2024-02-05T13:37:40.093Z,42.41
2024-02-05T13:40:08.865Z,42.42
2024-02-05T13:42:42.611Z,42.68
2024-02-05T13:45:11.717Z,42.47
2024-02-05T13:47:39.461Z,42.27
2024-02-05T13:50:09.424Z,42.43
2024-02-05T13:52:37.159Z,41.93
2024-02-05T13:55:05.358Z,42.16
2024-02-05T13:57:32.745Z,42.25
2024-02-05T14:00:00.127Z,42.11
2024-02-05T14:02:28.944Z,42.15
2024-02-05T14:04:56.767Z,42.97
2024-02-05T14:07:24.381Z,42.08
2024-02-05T14:09:53.163Z,42.49
2024-02-05T14:12:21.340Z,42.64
2024-02-05T14:14:48.752Z,42.43
2024-02-05T14:17:16.144Z,42.88
2024-02-05T14:19:44.413Z,42.57
2024-02-05T14:22:11.923Z,42.38
2024-02-05T14:24:39.302Z,42.14
2024-02-05T14:27:06.952Z,42.82
2024-02-05T14:29:34.385Z,42.71
2024-02-05T14:32:02.106Z,42.83
2024-02-05T14:34:34.174Z,42.78
2024-02-05T14:37:01.730Z,43.24
2024-02-05T14:39:29.178Z,43.61
2024-02-05T14:41:56.998Z,43.70
2024-02-05T14:44:24.355Z,43.54
2024-02-05T14:46:51.775Z,43.05
2024-02-05T14:49:22.169Z,43.06
2024-02-05T14:51:49.692Z,43.32
2024-02-05T14:54:17.208Z,43.34
2024-02-05T14:56:45.168Z,43.75
2024-02-05T14:59:12.579Z,43.58
2024-02-05T15:01:41.916Z,43.27
2024-02-05T15:04:10.068Z,42.69
2024-02-05T15:06:37.538Z,42.27
2024-02-05T15:09:04.908Z,42.49
2024-02-05T15:11:32.530Z,42.52
2024-02-05T15:13:59.880Z,42.24
2024-02-05T15:16:27.264Z,42.46
2024-02-05T15:18:55.042Z,42.24
2024-02-05T15:21:22.434Z,41.86
2024-02-05T15:23:49.741Z,41.84
2024-02-05T15:26:18.699Z,41.86
2024-02-05T15:28:48.133Z,42.10
2024-02-05T15:31:15.742Z,41.40
2024-02-05T15:33:43.710Z,42.02
2024-02-05T15:36:14.540Z,42.42
2024-02-05T15:38:42.325Z,42.52
2024-02-05T15:41:09.960Z,42.21
2024-02-05T15:43:37.439Z,42.13
2024-02-05T15:46:05.006Z,41.93
2024-02-05T15:48:32.927Z,42.16
2024-02-05T15:51:00.472Z,42.41
2024-02-05T15:53:27.816Z,42.14
2024-02-05T15:55:55.440Z,41.61
2024-02-05T15:58:23.375Z,41.76
2024-02-05T16:00:50.847Z,42.32
2024-02-05T16:03:18.593Z,42.36
2024-02-05T16:05:46.153Z,42.15
2024-02-05T16:08:13.905Z,42.26
2024-02-05T16:10:41.687Z,42.18
2024-02-05T16:13:09.140Z,42.09
2024-02-05T16:15:36.466Z,42.98
2024-02-05T16:18:04.955Z,43.25
2024-02-05T16:20:32.931Z,42.84
2024-02-05T16:23:00.826Z,43.10
2024-02-05T16:25:32.002Z,43.67
2024-02-05T16:27:59.765Z,42.91
2024-02-05T16:30:31.316Z,42.75
2024-02-05T16:32:59.460Z,42.12
2024-02-05T16:35:27.108Z,42.14
2024-02-05T16:37:54.662Z,42.46
2024-02-05T16:40:25.579Z,42.35
2024-02-05T16:42:53.278Z,42.49
2024-02-05T16:45:20.784Z,42.63
2024-02-05T16:47:48.565Z,42.60
2024-02-05T16:50:16.190Z,42.82
2024-02-05T16:52:44.819Z,42.25
2024-02-05T16:55:12.534Z,42.66
2024-02-05T16:57:39.907Z,42.97
2024-02-05T17:00:07.905Z,42.73
2024-02-05T17:02:35.514Z,43.26
2024-02-05T17:05:03.095Z,43.03
2024-02-05T17:07:30.694Z,43.13
2024-02-05T17:09:58.429Z,42.98
2024-02-05T17:12:28.160Z,43.37
2024-02-05T17:14:56.304Z,43.49
2024-02-05T17:17:23.944Z,43.81
2024-02-05T17:19:51.437Z,43.87
2024-02-05T17:22:19.109Z,44.27
2024-02-05T17:24:46.912Z,44.49
2024-02-05T17:27:14.320Z,44.45
2024-02-05T17:29:41.842Z,44.40
2024-02-05T17:32:09.590Z,44.60
2024-02-05T17:34:37.044Z,44.27
2024-02-05T17:37:04.995Z,44.41
2024-02-05T17:39:32.615Z,43.97
2024-02-05T17:41:59.984Z,43.57
2024-02-05T17:44:27.373Z,43.62
2024-02-05T17:46:58.938Z,43.56
2024-02-05T17:49:26.842Z,43.18
2024-02-05T17:51:54.593Z,42.59
2024-02-05T17:54:21.975Z,42.34
2024-02-05T17:56:49.508Z,42.75
2024-02-05T17:59:19.395Z,43.03
2024-02-05T18:01:47.063Z,42.94
2024-02-05T18:04:14.987Z,42.61
2024-02-05T18:06:42.517Z,42.40
2024-02-05T18:09:10.669Z,42.45
2024-02-05T18:11:38.304Z,42.17
2024-02-05T18:14:05.854Z,42.12
2024-02-05T18:16:33.559Z,41.52
2024-02-05T18:19:01.387Z,41.54
2024-02-05T18:21:29.238Z,41.63
2024-02-05T18:23:56.664Z,41.38
2024-02-05T18:26:27.083Z,41.74
2024-02-05T18:28:55.833Z,41.77
2024-02-05T18:31:23.490Z,41.55
2024-02-05T18:33:51.398Z,41.17
2024-02-05T18:36:19.224Z,41.49
2024-02-05T18:38:46.696Z,41.06
2024-02-05T18:41:14.342Z,41.16
2024-02-05T18:43:42.330Z,41.18
2024-02-05T18:46:09.814Z,41.30
2024-02-05T18:48:37.528Z,41.66
2024-02-05T18:51:04.973Z,41.61
2024-02-05T18:53:32.746Z,41.26
2024-02-05T18:56:02.046Z,40.99
2024-02-05T18:58:29.533Z,41.24
2024-02-05T19:00:57.036Z,41.13
2024-02-05T19:03:24.747Z,41.25
2024-02-05T19:05:52.383Z,40.75
2024-02-05T19:08:19.783Z,47.06
2024-02-05T19:10:47.582Z,41.31
2024-02-05T19:13:14.980Z,41.02
2024-02-05T19:15:42.414Z,41.36
2024-02-05T19:18:11.938Z,41.64
2024-02-05T19:20:39.402Z,41.55
2024-02-05T19:23:06.773Z,41.07
2024-02-05T19:25:35.657Z,41.20
2024-02-05T19:28:04.165Z,41.49
2024-02-05T19:30:32.918Z,41.59
2024-02-05T19:33:00.697Z,41.87
2024-02-05T19:35:28.068Z,41.68
2024-02-05T19:37:55.376Z,41.05
2024-02-05T19:40:25.094Z,41.54
2024-02-05T19:42:52.765Z,41.92
2024-02-05T19:45:20.573Z,41.42
2024-02-05T19:47:48.279Z,41.28
2024-02-05T19:50:17.521Z,41.20
2024-02-05T19:52:45.105Z,41.26
2024-02-05T19:55:13.751Z,40.83
2024-02-05T19:57:42.141Z,40.39
2024-02-05T20:00:10.210Z,40.37
2024-02-05T20:02:37.939Z,40.49
2024-02-05T20:05:06.022Z,40.31
2024-02-05T20:07:33.808Z,40.42
2024-02-05T20:10:01.549Z,40.63
2024-02-05T20:12:29.089Z,40.41
2024-02-05T20:14:56.494Z,40.24
2024-02-05T20:17:24.257Z,40.74
2024-02-05T20:19:51.847Z,40.69
2024-02-05T20:22:19.277Z,40.92
2024-02-05T20:24:47.397Z,40.56
2024-02-05T20:27:14.901Z,40.70
2024-02-05T20:29:42.295Z,41.41
2024-02-05T20:32:09.926Z,41.36
2024-02-05T20:34:37.318Z,41.21
2024-02-05T20:37:04.741Z,41.13
2024-02-05T20:39:32.780Z,40.71
2024-02-05T20:42:00.243Z,40.42
2024-02-05T20:44:27.599Z,40.67
2024-02-05T20:46:56.495Z,40.92
2024-02-05T20:49:25.046Z,40.51
2024-02-05T20:51:52.583Z,40.99
2024-02-05T20:54:20.370Z,40.76
2024-02-05T20:56:47.773Z,40.67
2024-02-05T20:59:15.196Z,40.39
2024-02-05T21:01:42.906Z,40.65
2024-02-05T21:04:10.660Z,40.54
2024-02-05T21:06:38.205Z,40.34
2024-02-05T21:09:10.559Z,40.48
2024-02-05T21:11:38.252Z,40.38
2024-02-05T21:14:06.590Z,40.37
2024-02-05T21:16:34.018Z,40.12
2024-02-05T21:19:01.565Z,40.22
2024-02-05T21:21:29.370Z,40.78
2024-02-05T21:23:57.497Z,40.78
2024-02-05T21:26:25.155Z,40.51
2024-02-05T21:28:54.218Z,40.36
2024-02-05T21:31:21.684Z,40.05
2024-02-05T21:33:49.156Z,40.20
2024-02-05T21:36:16.827Z,40.83
2024-02-05T21:38:44.190Z,40.60
2024-02-05T21:41:11.681Z,40.57
2024-02-05T21:43:39.485Z,40.51
2024-02-05T21:46:07.644Z,40.55
2024-02-05T21:48:35.296Z,39.75
2024-02-05T21:51:02.933Z,39.90
2024-02-05T21:53:30.280Z,39.90
2024-02-05T21:55:57.714Z,40.15
2024-02-05T21:58:25.438Z,39.49
2024-02-05T22:00:52.909Z,39.78
2024-02-05T22:03:20.590Z,39.59
2024-02-05T22:05:47.978Z,39.35
2024-02-05T22:08:16.811Z,39.37
2024-02-05T22:10:44.548Z,39.50
2024-02-05T22:13:14.967Z,39.39
2024-02-05T22:15:42.360Z,39.28
2024-02-05T22:18:10.147Z,39.27
2024-02-05T22:20:37.561Z,39.29
2024-02-05T22:23:05.020Z,39.10
2024-02-05T22:25:32.685Z,38.95
2024-02-05T22:28:00.328Z,38.86
2024-02-05T22:30:27.832Z,38.96
2024-02-05T22:32:55.446Z,38.75
2024-02-05T22:35:23.140Z,38.77
2024-02-05T22:37:50.936Z,38.81
2024-02-05T22:40:19.418Z,38.79
2024-02-05T22:42:47.082Z,38.83
2024-02-05T22:45:16.044Z,38.75
2024-02-05T22:47:43.704Z,38.75
2024-02-05T22:50:11.372Z,38.65
2024-02-05T22:52:39.012Z,38.58
2024-02-05T22:55:07.137Z,38.92
2024-02-05T22:57:34.607Z,39.07
2024-02-05T23:00:02.846Z,39.26
2024-02-05T23:02:31.837Z,39.34
2024-02-05T23:04:59.297Z,39.51
2024-02-05T23:07:26.998Z,39.86
2024-02-05T23:09:54.918Z,40.08
2024-02-05T23:12:22.311Z,40.23
2024-02-05T23:14:49.652Z,40.42
2024-02-05T23:17:17.288Z,40.41
2024-02-05T23:19:44.742Z,40.73
2024-02-05T23:22:12.234Z,40.79
2024-02-05T23:24:39.889Z,41.19
2024-02-05T23:27:07.277Z,41.24
2024-02-05T23:29:34.614Z,41.15
2024-02-05T23:32:02.667Z,41.80
2024-02-05T23:34:30.153Z,41.80
2024-02-05T23:36:57.552Z,41.70
2024-02-05T23:39:25.228Z,41.72
2024-02-05T23:41:52.656Z,41.51
2024-02-05T23:44:20.041Z,41.62
2024-02-05T23:46:47.911Z,41.79
2024-02-05T23:49:15.728Z,41.64
2024-02-05T23:51:43.574Z,41.77
2024-02-05T23:54:11.262Z,41.43
2024-02-05T23:56:38.708Z,41.05
2024-02-05T23:59:06.121Z,40.83
